Time;durP1;ratioP1;P1;durP2;ratioP2;P2;SDS_P1;SDS_P2;PMS_P1;PMS_P2;Temp;Humidity;BMP_temperature;BMP_pressure;BME280_temperature;BME280_humidity;BME280_pressure;Samples;Min_cycle;Max_cycle;Signal;HPM_P1;HPM_P2
2022/04/29 00:00:18;;;;;;;1.27;1.15;;;11.30;88.90;;;;;;4177455;28;20045;-92
2022/04/29 00:02:21;;;;;;;;;;;11.20;88.30;;;;;;4096159;29;20579;-92
2022/04/29 00:04:24;;;;;;;1.58;1.20;;;11.20;88.60;;;;;;4098132;28;20450;-93
2022/04/29 00:06:28;;;;;;;1.23;1.23;;;11.30;89.10;;;;;;4112643;28;20057;-93
2022/04/29 00:08:31;;;;;;;1.83;1.30;;;11.30;89.20;;;;;;4097760;28;20067;-92
2022/04/29 00:10:34;;;;;;;1.30;1.20;;;11.50;89.70;;;;;;4095731;29;20173;-92
2022/04/29 00:12:37;;;;;;;1.77;1.67;;;11.50;88.80;;;;;;4098046;28;20094;-92
2022/04/29 00:14:40;;;;;;;1.60;1.35;;;11.40;89.30;;;;;;4113828;28;20093;-92
2022/04/29 00:17:09;;;;;;;1.45;1.45;;;11.40;88.40;;;;;;4095465;29;20050;-91
2022/04/29 00:19:12;;;;;;;1.20;1.10;;;11.60;88.00;;;;;;4051613;29;20105;-92
2022/04/29 00:21:14;;;;;;;1.20;1.20;;;11.60;87.70;;;;;;4069880;29;20078;-92
2022/04/29 00:23:16;;;;;;;;;;;11.60;88.00;;;;;;4066634;29;20062;-92
2022/04/29 00:25:19;;;;;;;1.50;1.50;;;11.60;88.50;;;;;;4081018;29;19926;-92
2022/04/29 00:27:21;;;;;;;1.40;1.40;;;11.60;89.90;;;;;;4081014;29;20075;-92
2022/04/29 00:29:24;;;;;;;1.13;1.13;;;11.60;89.10;;;;;;4079658;29;20074;-91
2022/04/29 00:31:28;;;;;;;1.40;1.30;;;11.90;88.50;;;;;;4064701;29;20560;-92
2022/04/29 00:33:30;;;;;;;1.10;1.10;;;11.90;88.50;;;;;;4095748;29;20055;-92
2022/04/29 00:35:33;;;;;;;1.52;1.42;;;11.80;89.40;;;;;;4048118;29;20790;-92
2022/04/29 00:37:52;;;;;;;2.67;1.30;;;11.80;89.20;;;;;;4065630;29;20161;-92
2022/04/29 00:39:54;;;;;;;1.40;1.40;;;11.90;88.90;;;;;;4113788;28;20648;-92
2022/04/29 00:41:56;;;;;;;2.88;1.50;;;11.80;89.80;;;;;;4127122;28;20046;-91
2022/04/29 00:44:07;;;;;;;1.38;1.38;;;11.70;90.10;;;;;;4128553;28;20514;-92
2022/04/29 00:46:10;;;;;;;1.30;1.30;;;11.70;90.00;;;;;;4128528;28;20039;-91
2022/04/29 00:48:12;;;;;;;1.40;1.30;;;11.60;90.10;;;;;;4127269;28;20083;-92
2022/04/29 00:50:16;;;;;;;1.50;1.40;;;11.60;90.20;;;;;;4128965;28;20050;-92
2022/04/29 00:52:21;;;;;;;1.40;1.40;;;11.50;90.50;;;;;;4127311;28;20046;-92
2022/04/29 00:54:28;;;;;;;2.15;1.33;;;11.50;90.70;;;;;;4144152;28;20050;-92
2022/04/29 00:56:34;;;;;;;1.25;1.25;;;11.30;90.70;;;;;;4163525;28;20500;-92
2022/04/29 00:58:42;;;;;;;1.35;1.30;;;11.30;90.90;;;;;;4159712;28;20529;-92
2022/04/29 01:00:45;;;;;;;1.20;1.15;;;11.20;90.90;;;;;;4175648;28;20033;-92
2022/04/29 01:02:52;;;;;;;1.45;1.35;;;11.10;91.00;;;;;;4180327;28;20041;-92
2022/04/29 01:05:07;;;;;;;1.70;1.33;;;11.40;90.70;;;;;;4171829;28;20037;-93
2022/04/29 01:07:10;;;;;;;2.05;1.40;;;11.60;91.30;;;;;;4192129;28;20100;-92
2022/04/29 01:09:12;;;;;;;1.35;1.25;;;11.50;90.80;;;;;;4170198;28;20041;-92
2022/04/29 01:11:18;;;;;;;1.60;1.60;;;11.50;90.90;;;;;;4176929;28;20045;-92
2022/04/29 01:13:21;;;;;;;1.65;1.65;;;11.60;90.90;;;;;;4152213;28;20068;-92
2022/04/29 01:15:26;;;;;;;1.90;1.80;;;11.70;90.80;;;;;;4194988;28;20045;-92
2022/04/29 01:17:35;;;;;;;1.77;1.30;;;11.80;90.70;;;;;;4167680;28;20091;-92
2022/04/29 01:19:38;;;;;;;1.67;1.30;;;11.70;91.10;;;;;;4149873;28;20037;-92
2022/04/29 01:21:42;;;;;;;1.88;1.70;;;11.60;91.00;;;;;;4179232;28;20036;-92
2022/04/29 01:23:44;;;;;;;1.55;1.45;;;11.60;91.10;;;;;;4179895;28;20068;-91
2022/04/29 01:26:16;;;;;;;7.03;1.58;;;11.60;91.40;;;;;;4179823;28;20522;-92
2022/04/29 01:28:20;;;;;;;1.60;1.60;;;11.50;91.60;;;;;;4112157;28;20103;-92
2022/04/29 01:30:25;;;;;;;2.47;1.35;;;11.50;91.60;;;;;;4112456;28;20109;-92
2022/04/29 01:32:28;;;;;;;2.42;1.30;;;11.60;91.50;;;;;;4113255;28;20050;-92
2022/04/29 01:34:31;;;;;;;1.35;1.35;;;11.60;91.60;;;;;;4113773;28;20046;-92
2022/04/29 01:36:35;;;;;;;1.67;1.67;;;11.50;91.90;;;;;;4113079;28;20046;-92
2022/04/29 01:38:38;;;;;;;2.00;1.90;;;11.60;91.70;;;;;;4097396;29;20106;-93
2022/04/29 01:40:40;;;;;;;1.73;1.63;;;11.60;92.00;;;;;;4097743;28;20074;-92
2022/04/29 01:42:43;;;;;;;1.52;1.52;;;11.60;91.60;;;;;;4105522;28;20082;-92
2022/04/29 01:44:47;;;;;;;3.10;1.67;;;11.50;92.00;;;;;;4098728;28;20131;-92
2022/04/29 01:46:50;;;;;;;1.48;1.48;;;11.40;92.00;;;;;;4111906;28;20077;-93
2022/04/29 01:48:52;;;;;;;1.85;1.70;;;11.30;92.20;;;;;;4112164;28;20043;-91
2022/04/29 01:50:55;;;;;;;1.55;1.55;;;11.20;92.50;;;;;;4085887;29;20063;-92
2022/04/29 01:53:01;;;;;;;3.88;1.50;;;11.40;92.20;;;;;;4087170;29;20054;-92
2022/04/29 01:55:03;;;;;;;1.60;1.50;;;11.40;92.10;;;;;;4096995;29;20063;-92
2022/04/29 01:57:08;;;;;;;1.98;1.75;;;11.20;92.60;;;;;;4097226;29;20352;-92
2022/04/29 01:59:10;;;;;;;1.58;1.55;;;11.10;92.40;;;;;;4097030;29;20078;-92
2022/04/29 02:01:13;;;;;;;1.65;1.55;;;11.30;92.30;;;;;;4097169;29;20035;-92
2022/04/29 02:03:16;;;;;;;1.48;1.48;;;11.20;92.40;;;;;;4113558;28;20193;-92
2022/04/29 02:05:20;;;;;;;1.80;1.70;;;11.20;92.60;;;;;;4127654;28;20045;-92
2022/04/29 02:07:23;;;;;;;1.95;1.85;;;11.20;92.40;;;;;;4196761;28;20039;-93
2022/04/29 02:09:28;;;;;;;2.05;1.95;;;11.10;92.50;;;;;;4179228;28;20076;-92
2022/04/29 02:11:31;;;;;;;2.55;1.80;;;11.10;92.70;;;;;;4178722;28;20044;-92
2022/04/29 02:13:34;;;;;;;1.70;1.60;;;11.00;93.10;;;;;;4164220;28;20661;-92
2022/04/29 02:15:36;;;;;;;1.83;1.60;;;10.90;93.10;;;;;;4147233;28;20118;-92
2022/04/29 02:17:38;;;;;;;1.75;1.75;;;10.90;93.00;;;;;;4177104;28;20056;-92
2022/04/29 02:19:41;;;;;;;1.70;1.65;;;10.80;93.30;;;;;;4164061;28;20049;-93
2022/04/29 02:21:44;;;;;;;2.03;1.92;;;10.80;93.50;;;;;;4178211;28;20039;-93
2022/04/29 02:23:47;;;;;;;2.20;2.00;;;10.90;93.10;;;;;;4194487;28;20130;-92
2022/04/29 02:25:51;;;;;;;1.90;1.80;;;10.80;93.30;;;;;;4162213;28;20087;-92
2022/04/29 02:27:54;;;;;;;2.67;2.00;;;10.70;93.70;;;;;;4175874;28;20033;-92
2022/04/29 02:29:57;;;;;;;2.15;1.33;;;10.80;93.30;;;;;;4193624;28;20107;-92
2022/04/29 02:31:59;;;;;;;1.60;1.60;;;10.90;93.40;;;;;;4162154;28;20041;-92
2022/04/29 02:34:03;;;;;;;1.73;1.63;;;10.90;93.10;;;;;;4175235;28;20047;-93
2022/04/29 02:36:07;;;;;;;2.13;1.92;;;10.90;93.40;;;;;;4184546;28;20036;-92
2022/04/29 02:38:10;;;;;;;2.28;1.73;;;10.90;93.10;;;;;;4161953;28;20574;-92
2022/04/29 02:40:12;;;;;;;2.35;1.90;;;10.90;93.00;;;;;;4178621;28;20048;-92
2022/04/29 02:42:14;;;;;;;1.55;1.55;;;10.80;93.30;;;;;;4162769;28;20128;-92
2022/04/29 02:44:17;;;;;;;2.95;1.67;;;10.80;93.40;;;;;;4162256;28;20118;-92
2022/04/29 02:46:20;;;;;;;1.88;1.70;;;11.00;92.80;;;;;;4178301;28;20033;-92
2022/04/29 02:48:23;;;;;;;1.95;1.95;;;11.10;92.80;;;;;;4177106;28;20055;-92
2022/04/29 02:50:26;;;;;;;2.50;2.03;;;11.10;92.80;;;;;;4176552;28;20079;-92
2022/04/29 02:52:29;;;;;;;4.57;3.55;;;11.10;92.80;;;;;;4177072;28;20051;-93
2022/04/29 02:54:32;;;;;;;1.83;1.70;;;11.10;93.10;;;;;;4163332;28;20072;-92
2022/04/29 02:56:35;;;;;;;7.35;1.50;;;11.10;92.90;;;;;;4178070;28;20059;-92
2022/04/29 02:58:37;;;;;;;2.15;2.00;;;11.00;93.00;;;;;;4173862;28;20986;-92
2022/04/29 03:00:40;;;;;;;1.85;1.75;;;10.90;93.20;;;;;;4161219;28;20119;-92
2022/04/29 03:03:09;;;;;;;1.73;1.73;;;10.80;93.70;;;;;;4179354;28;20123;-91
2022/04/29 03:05:12;;;;;;;1.60;1.50;;;10.70;93.40;;;;;;4095969;29;20106;-92
2022/04/29 03:07:16;;;;;;;2.67;1.80;;;10.70;93.60;;;;;;4110063;28;20078;-92
2022/04/29 03:09:20;;;;;;;2.88;1.83;;;10.70;93.20;;;;;;4120372;28;20062;-92
2022/04/29 03:11:24;;;;;;;1.48;1.48;;;10.90;93.00;;;;;;4122979;28;20034;-92
2022/04/29 03:13:27;;;;;;;1.75;1.65;;;10.90;93.20;;;;;;4097421;28;20047;-92
2022/04/29 03:15:30;;;;;;;2.15;1.45;;;10.90;93.00;;;;;;4080323;29;20063;-92
2022/04/29 03:20:20;;;;;;;2.05;1.63;;;10.80;93.40;;;;;;4112110;28;20101;-92
2022/04/29 03:22:23;;;;;;;1.83;1.80;;;10.70;93.70;;;;;;4064397;29;20127;-92
2022/04/29 03:24:25;;;;;;;1.98;1.98;;;10.80;93.80;;;;;;4064723;29;20084;-93
2022/04/29 03:26:28;;;;;;;1.83;1.73;;;10.80;93.80;;;;;;4064478;29;20573;-92
2022/04/29 03:28:30;;;;;;;1.85;1.75;;;10.80;93.70;;;;;;4064230;29;20048;-92
2022/04/29 03:30:34;;;;;;;2.75;1.95;;;10.70;94.20;;;;;;4048814;29;20044;-92
2022/04/29 03:32:37;;;;;;;1.67;1.67;;;10.40;94.60;;;;;;4064445;29;20765;-92
2022/04/29 03:35:06;;;;;;;2.05;2.05;;;10.20;95.20;;;;;;4064272;29;20091;-92
2022/04/29 03:37:08;;;;;;;2.45;2.35;;;10.20;95.20;;;;;;4017710;29;20088;-93
2022/04/29 03:39:10;;;;;;;2.33;2.13;;;10.50;94.70;;;;;;4017637;29;20053;-92
2022/04/29 03:41:12;;;;;;;2.03;1.90;;;10.70;94.30;;;;;;4018256;29;20045;-92
2022/04/29 03:43:15;;;;;;;2.10;2.00;;;10.70;94.20;;;;;;4042882;29;20105;-92
2022/04/29 03:45:18;;;;;;;1.83;1.83;;;10.70;94.20;;;;;;4064334;29;20032;-92
2022/04/29 03:47:21;;;;;;;1.73;1.73;;;10.50;94.60;;;;;;4065400;29;20048;-92
2022/04/29 03:49:39;;;;;;;1.77;1.77;;;10.40;95.00;;;;;;4049197;29;20565;-92
2022/04/29 03:51:42;;;;;;;1.75;1.75;;;10.40;94.80;;;;;;4064446;29;20063;-92
2022/04/29 03:53:44;;;;;;;2.60;1.70;;;10.40;94.80;;;;;;4048581;29;20521;-93
2022/04/29 03:55:46;;;;;;;2.75;2.55;;;10.30;95.30;;;;;;4048654;29;20091;-92
2022/04/29 03:57:49;;;;;;;2.20;2.20;;;10.30;95.40;;;;;;4033229;29;20053;-91
2022/04/29 03:59:55;;;;;;;2.05;1.95;;;10.40;95.60;;;;;;4085738;29;20081;-92
2022/04/29 04:01:57;;;;;;;2.17;2.08;;;10.40;95.60;;;;;;4096484;29;20146;-92
2022/04/29 04:03:59;;;;;;;;;;;10.50;95.20;;;;;;4113494;28;20054;-92
2022/04/29 04:08:23;;;;;;;2.08;1.98;;;10.70;95.00;;;;;;4112937;28;20046;-92
2022/04/29 04:10:26;;;;;;;1.95;1.77;;;10.70;94.90;;;;;;4112805;28;20492;-92
2022/04/29 04:12:42;;;;;;;2.00;1.88;;;10.60;95.30;;;;;;4094361;29;20094;-92
2022/04/29 04:14:44;;;;;;;2.30;2.20;;;10.40;95.20;;;;;;4126199;28;20054;-92
2022/04/29 04:16:48;;;;;;;2.20;2.10;;;10.40;95.00;;;;;;4194981;28;20086;-92
2022/04/29 04:18:51;;;;;;;3.72;1.75;;;10.60;95.00;;;;;;4168834;28;20099;-92
2022/04/29 04:20:54;;;;;;;2.70;2.60;;;10.40;96.20;;;;;;4162442;28;20041;-92
2022/04/29 04:22:57;;;;;;;2.45;2.25;;;10.40;95.60;;;;;;4176193;28;20053;-92
2022/04/29 04:24:59;;;;;;;2.55;1.85;;;10.50;95.20;;;;;;4176944;28;20076;-92
2022/04/29 04:27:02;;;;;;;3.70;2.10;;;10.50;95.70;;;;;;4177012;28;20135;-93
2022/04/29 04:29:04;;;;;;;2.30;2.20;;;10.30;96.40;;;;;;4177287;28;20057;-92
2022/04/29 04:31:07;;;;;;;2.42;2.33;;;10.20;96.00;;;;;;4189528;28;20041;-92
2022/04/29 04:33:10;;;;;;;4.68;3.05;;;10.30;95.80;;;;;;4179186;28;20481;-92
2022/04/29 04:35:12;;;;;;;1.92;1.92;;;10.30;96.10;;;;;;4193272;28;20032;-92
2022/04/29 04:37:14;;;;;;;2.50;2.40;;;10.20;96.00;;;;;;4176538;28;20436;-91
2022/04/29 04:39:17;;;;;;;2.80;2.58;;;10.20;96.10;;;;;;4194087;28;20046;-92
2022/04/29 04:41:20;;;;;;;2.05;1.95;;;10.20;96.30;;;;;;4183797;28;20037;-92
2022/04/29 04:43:23;;;;;;;2.45;2.25;;;10.30;96.20;;;;;;4178266;28;20045;-92
2022/04/29 04:45:26;;;;;;;1.63;1.63;;;10.30;96.10;;;;;;4163578;28;20045;-92
2022/04/29 04:47:29;;;;;;;1.90;1.90;;;10.40;95.40;;;;;;4187822;28;20032;-92
2022/04/29 04:49:32;;;;;;;2.13;2.05;;;10.20;96.70;;;;;;4160601;28;20045;-92
2022/04/29 04:51:35;;;;;;;2.10;1.80;;;9.60;98.00;;;;;;4196081;28;20063;-92
2022/04/29 04:53:38;;;;;;;2.65;2.10;;;9.00;99.50;;;;;;4179746;28;20102;-91
2022/04/29 04:55:41;;;;;;;2.33;2.22;;;8.70;99.90;;;;;;4163420;28;20050;-92
2022/04/29 04:57:43;;;;;;;3.83;2.13;;;8.50;99.90;;;;;;4198433;28;20657;-92
2022/04/29 04:59:47;;;;;;;2.55;2.45;;;8.50;99.90;;;;;;4163517;28;20033;-93
2022/04/29 05:01:52;;;;;;;3.10;3.00;;;8.40;99.90;;;;;;4162700;28;20108;-92
2022/04/29 05:04:20;;;;;;;2.63;2.53;;;8.50;99.90;;;;;;4158382;28;20060;-92
2022/04/29 05:06:23;;;;;;;3.17;2.97;;;8.70;99.90;;;;;;4092972;29;20044;-92
2022/04/29 05:08:25;;;;;;;3.03;2.92;;;8.80;99.90;;;;;;4093305;29;20400;-91
2022/04/29 05:10:28;;;;;;;3.75;2.88;;;9.00;99.90;;;;;;4069380;29;20628;-92
2022/04/29 05:12:30;;;;;;;2.15;2.10;;;9.90;98.50;;;;;;4066627;29;20103;-91
2022/04/29 05:14:34;;;;;;;2.78;2.67;;;10.00;98.40;;;;;;4053724;29;20513;-93
2022/04/29 05:16:36;;;;;;;2.78;2.60;;;10.00;97.40;;;;;;4083068;29;20048;-93
2022/04/29 05:18:39;;;;;;;2.72;2.72;;;10.50;96.70;;;;;;4066665;29;20048;-93
2022/04/29 05:20:43;;;;;;;3.78;2.63;;;10.70;96.60;;;;;;4081541;29;20056;-92
2022/04/29 05:22:46;;;;;;;2.15;1.92;;;10.70;96.80;;;;;;4081882;29;20060;-87
2022/04/29 05:24:48;;;;;;;1.90;1.90;;;10.80;97.00;;;;;;4096994;29;20102;-87
2022/04/29 05:26:51;;;;;;;2.63;2.53;;;10.90;96.10;;;;;;4097133;29;20055;-86
2022/04/29 05:28:54;;;;;;;5.03;2.30;;;11.00;96.00;;;;;;4096868;29;20039;-87
2022/04/29 05:30:57;;;;;;;3.20;1.85;;;11.10;96.00;;;;;;4096792;29;20479;-87
2022/04/29 05:32:59;;;;;;;2.63;2.53;;;11.10;96.20;;;;;;4082646;29;20047;-87
2022/04/29 05:35:04;;;;;;;2.85;2.75;;;11.10;96.20;;;;;;4080283;29;20048;-87
2022/04/29 05:37:07;;;;;;;2.13;2.03;;;11.10;96.50;;;;;;4065473;29;20048;-87
2022/04/29 05:43:51;;;;;;;1.90;1.90;;;11.60;94.60;;;;;;4133659;28;20128;-86
2022/04/29 05:45:54;;;;;;;3.47;2.33;;;11.70;95.50;;;;;;4185746;28;20147;-86
2022/04/29 05:47:57;;;;;;;3.38;3.08;;;11.80;95.00;;;;;;4169126;28;20041;-87
2022/04/29 05:50:00;;;;;;;2.25;2.05;;;11.90;95.20;;;;;;4183202;28;20040;-87
2022/04/29 05:52:03;;;;;;;1.88;1.83;;;12.10;94.80;;;;;;4186660;28;20444;-86
2022/04/29 05:54:06;;;;;;;1.70;1.65;;;11.90;95.80;;;;;;4178327;28;20045;-87
2022/04/29 05:56:08;;;;;;;3.03;1.83;;;12.00;94.80;;;;;;4193917;28;20497;-85
2022/04/29 05:58:11;;;;;;;2.55;2.45;;;12.00;94.60;;;;;;4176897;28;20051;-84
2022/04/29 06:00:14;;;;;;;2.65;2.45;;;12.20;94.50;;;;;;4194508;28;20147;-85
2022/04/29 06:02:24;;;;;;;1.98;1.95;;;12.30;92.90;;;;;;4178672;28;20075;-85
2022/04/29 06:04:26;;;;;;;2.25;2.15;;;12.50;93.30;;;;;;4184943;28;20033;-85
2022/04/29 06:06:31;;;;;;;3.67;2.45;;;12.50;95.10;;;;;;4192924;28;20071;-85
2022/04/29 06:08:33;;;;;;;1.65;1.60;;;12.60;93.00;;;;;;4191850;28;20082;-85
2022/04/29 06:10:36;;;;;;;2.05;1.95;;;12.60;93.10;;;;;;4194700;28;20065;-85
2022/04/29 06:12:39;;;;;;;2.20;2.10;;;12.70;93.00;;;;;;4177824;28;20049;-85
2022/04/29 06:14:45;;;;;;;2.17;2.08;;;12.90;92.90;;;;;;4150450;28;20056;-85
2022/04/29 06:16:47;;;;;;;1.83;1.73;;;13.10;91.90;;;;;;4177544;28;20041;-85
2022/04/29 06:18:49;;;;;;;1.70;1.60;;;13.10;91.40;;;;;;4192742;28;20127;-85
2022/04/29 06:20:53;;;;;;;2.70;2.40;;;13.30;91.90;;;;;;4177169;28;20045;-85
2022/04/29 06:22:55;;;;;;;1.35;1.35;;;13.30;91.90;;;;;;4193647;28;20089;-85
2022/04/29 06:24:57;;;;;;;2.20;1.40;;;13.40;92.10;;;;;;4178284;28;20067;-85
2022/04/29 06:27:10;;;;;;;1.75;1.70;;;13.70;91.30;;;;;;4177845;28;20036;-85
2022/04/29 06:29:12;;;;;;;1.90;1.88;;;13.50;91.50;;;;;;4193697;28;20056;-85
2022/04/29 06:31:14;;;;;;;3.00;1.40;;;13.40;91.20;;;;;;4168647;28;20068;-85
2022/04/29 06:33:17;;;;;;;2.03;2.03;;;13.50;91.80;;;;;;4194964;28;20033;-84
2022/04/29 06:35:19;;;;;;;1.65;1.65;;;13.60;91.00;;;;;;4177350;28;20069;-85
2022/04/29 06:37:21;;;;;;;1.70;1.65;;;13.60;90.40;;;;;;4175968;28;20507;-85
2022/04/29 06:39:26;;;;;;;1.40;1.40;;;13.60;90.70;;;;;;4155076;28;20033;-85
2022/04/29 06:41:28;;;;;;;1.88;1.55;;;13.80;91.20;;;;;;4161405;28;20143;-85
2022/04/29 06:43:31;;;;;;;2.35;1.30;;;13.90;91.50;;;;;;4193308;28;20041;-85
2022/04/29 06:45:36;;;;;;;1.65;1.65;;;14.10;90.70;;;;;;4193762;28;20055;-85
2022/04/29 06:47:40;;;;;;;1.88;1.77;;;14.20;90.50;;;;;;4150522;28;20092;-85
2022/04/29 06:49:43;;;;;;;1.40;1.30;;;14.10;90.00;;;;;;4175401;28;20064;-85
2022/04/29 06:51:45;;;;;;;2.30;1.38;;;14.10;89.50;;;;;;4192692;28;20520;-85
2022/04/29 06:53:47;;;;;;;1.15;1.15;;;14.00;89.20;;;;;;4193767;28;20123;-86
2022/04/29 06:55:51;;;;;;;1.75;1.65;;;14.00;90.20;;;;;;4194808;28;20072;-85
2022/04/29 06:57:54;;;;;;;1.48;1.48;;;14.20;90.50;;;;;;4173786;28;20053;-86
2022/04/29 06:59:56;;;;;;;1.40;1.40;;;14.20;88.00;;;;;;4178330;28;20171;-85
2022/04/29 07:01:58;;;;;;;;;;;14.10;88.40;;;;;;4160464;28;20045;-86
2022/04/29 07:04:00;;;;;;;2.07;1.97;;;14.20;88.50;;;;;;4192063;28;20315;-85
2022/04/29 07:06:04;;;;;;;2.50;1.80;;;14.10;89.00;;;;;;4175658;28;20078;-86
2022/04/29 07:08:06;;;;;;;1.95;1.50;;;14.20;87.90;;;;;;4176284;28;20060;-85
2022/04/29 07:10:09;;;;;;;;;;;14.30;90.10;;;;;;4176013;28;20053;-86
2022/04/29 07:12:11;;;;;;;3.08;1.45;;;14.40;87.20;;;;;;4171470;28;20012;-86
2022/04/29 07:14:14;;;;;;;1.70;1.70;;;14.40;87.50;;;;;;4184776;28;20072;-86
2022/04/29 07:16:16;;;;;;;1.58;1.45;;;14.30;85.70;;;;;;4176733;28;20413;-85
2022/04/29 07:18:20;;;;;;;1.50;1.40;;;14.40;88.50;;;;;;4175114;28;20049;-86
2022/04/29 07:20:23;;;;;;;1.55;1.55;;;14.70;88.20;;;;;;4161212;28;20034;-85
2022/04/29 07:22:25;;;;;;;1.88;1.70;;;15.00;87.60;;;;;;4161777;28;20030;-85
2022/04/29 07:24:28;;;;;;;1.50;1.50;;;15.00;87.60;;;;;;4164888;28;20061;-85
2022/04/29 07:26:30;;;;;;;1.55;1.52;;;14.80;85.20;;;;;;4179374;28;20029;-86
2022/04/29 07:28:33;;;;;;;1.70;1.70;;;14.90;85.70;;;;;;4167675;28;20044;-85
2022/04/29 07:30:35;;;;;;;1.80;1.60;;;14.80;83.70;;;;;;4193069;28;20071;-85
2022/04/29 07:32:37;;;;;;;1.60;1.60;;;14.80;85.40;;;;;;4193096;28;20037;-85
2022/04/29 07:41:48;;;;;;;1.42;1.20;;;15.10;83.80;;;;;;4163406;28;20171;-85
2022/04/29 07:43:50;;;;;;;1.85;1.52;;;15.30;85.90;;;;;;4177805;28;20112;-85
2022/04/29 07:45:53;;;;;;;;;;;15.60;86.90;;;;;;4176910;28;20123;-85
2022/04/29 07:47:59;;;;;;;1.30;1.30;;;15.60;83.00;;;;;;4194099;28;19920;-85
2022/04/29 07:50:01;;;;;;;1.40;1.40;;;15.80;84.30;;;;;;4159692;28;20579;-85
2022/04/29 07:52:03;;;;;;;1.42;1.33;;;15.70;81.80;;;;;;4192725;28;20044;-85
2022/04/29 07:54:06;;;;;;;1.40;1.40;;;15.50;81.40;;;;;;4169541;28;20037;-86
2022/04/29 07:56:08;;;;;;;1.90;1.90;;;15.40;82.30;;;;;;4194111;28;20135;-85
2022/04/29 07:58:10;;;;;;;1.67;1.52;;;15.40;85.50;;;;;;4189159;28;20131;-85
2022/04/29 08:00:13;;;;;;;1.30;1.30;;;15.70;83.60;;;;;;4174831;28;20513;-85
2022/04/29 08:02:15;;;;;;;1.30;1.30;;;16.00;80.80;;;;;;4185451;28;20073;-85
2022/04/29 08:04:18;;;;;;;1.20;1.10;;;15.80;82.60;;;;;;4159822;28;20295;-85
2022/04/29 08:06:21;;;;;;;;;;;15.80;81.80;;;;;;4193658;28;20484;-85
2022/04/29 08:08:25;;;;;;;2.08;1.30;;;15.80;81.30;;;;;;4193797;28;19970;-85
2022/04/29 08:10:32;;;;;;;2.30;2.15;;;16.00;82.50;;;;;;4164726;28;20095;-85
2022/04/29 08:12:35;;;;;;;1.27;1.27;;;16.30;82.80;;;;;;4184760;28;20043;-85
2022/04/29 08:14:38;;;;;;;1.20;1.20;;;16.30;79.50;;;;;;4185524;28;20119;-86
2022/04/29 08:16:51;;;;;;;;;;;16.20;80.00;;;;;;4172121;28;20424;-85
2022/04/29 08:18:53;;;;;;;3.83;1.30;;;16.10;77.40;;;;;;4157722;28;20362;-85
2022/04/29 08:20:56;;;;;;;1.63;1.52;;;16.40;80.90;;;;;;4178013;28;20829;-85
2022/04/29 08:22:59;;;;;;;1.65;1.33;;;16.20;79.70;;;;;;4162995;28;20075;-85
2022/04/29 08:25:02;;;;;;;1.05;1.05;;;16.30;78.60;;;;;;4175765;28;20045;-85
2022/04/29 08:27:04;;;;;;;1.77;1.33;;;16.30;80.30;;;;;;4178685;28;20045;-85
2022/04/29 08:29:08;;;;;;;;;;;16.60;83.20;;;;;;4179863;28;20108;-85
2022/04/29 08:31:11;;;;;;;1.30;1.20;;;17.00;79.60;;;;;;4167733;28;20310;-85
2022/04/29 08:33:14;;;;;;;1.20;1.20;;;17.00;83.20;;;;;;4159778;28;20045;-85
2022/04/29 08:35:17;;;;;;;1.20;1.20;;;17.10;76.70;;;;;;4188079;28;20052;-85
2022/04/29 08:37:19;;;;;;;1.10;1.10;;;16.90;78.20;;;;;;4196978;28;20040;-85
2022/04/29 08:39:22;;;;;;;1.67;1.00;;;16.70;78.70;;;;;;4192475;28;20045;-85
2022/04/29 08:41:24;;;;;;;1.00;1.00;;;17.10;80.90;;;;;;4179227;28;20041;-85
2022/04/29 08:43:27;;;;;;;1.48;1.10;;;17.50;80.20;;;;;;4195502;28;20036;-85
2022/04/29 08:45:30;;;;;;;1.50;1.40;;;17.40;79.00;;;;;;4179448;28;20076;-85
2022/04/29 08:47:36;;;;;;;;;;;17.40;77.60;;;;;;4164956;28;20532;-85
2022/04/29 08:49:39;;;;;;;2.50;1.00;;;17.50;77.40;;;;;;4184690;28;20004;-85
2022/04/29 08:51:44;;;;;;;5.60;1.23;;;17.60;80.10;;;;;;4194191;28;20079;-85
2022/04/29 08:53:47;;;;;;;1.02;0.90;;;17.60;78.90;;;;;;4193430;28;20075;-85
2022/04/29 08:58:37;;;;;;;4.97;1.10;;;17.50;79.10;;;;;;4135732;28;20041;-85
2022/04/29 09:00:42;;;;;;;1.00;1.00;;;17.70;78.50;;;;;;4121376;28;20042;-85
2022/04/29 09:02:44;;;;;;;2.70;1.10;;;17.00;76.80;;;;;;4114245;28;20089;-85
2022/04/29 09:04:49;;;;;;;1.08;1.00;;;17.30;78.30;;;;;;4193709;28;20044;-85
2022/04/29 09:06:52;;;;;;;1.20;1.20;;;17.60;76.80;;;;;;4195103;28;20039;-85
2022/04/29 09:09:07;;;;;;;1.00;1.00;;;17.60;75.60;;;;;;4196057;28;20031;-85
2022/04/29 09:11:11;;;;;;;1.38;1.27;;;17.50;77.60;;;;;;4182089;28;20053;-85
2022/04/29 09:13:25;;;;;;;2.70;1.13;;;17.50;77.10;;;;;;4178120;28;20041;-85
2022/04/29 09:15:27;;;;;;;1.67;1.10;;;17.60;76.70;;;;;;4181128;28;20040;-85
2022/04/29 09:17:31;;;;;;;1.00;1.00;;;17.90;80.10;;;;;;4192817;28;20045;-85
2022/04/29 09:19:36;;;;;;;1.00;1.00;;;18.40;80.50;;;;;;4193569;28;20503;-85
2022/04/29 09:21:38;;;;;;;2.67;1.00;;;18.20;75.60;;;;;;4195107;28;20082;-85
2022/04/29 09:23:55;;;;;;;1.00;1.00;;;18.30;77.60;;;;;;4196561;28;20082;-85
2022/04/29 09:26:01;;;;;;;1.50;0.90;;;18.30;75.80;;;;;;4196297;28;20760;-85
2022/04/29 09:28:04;;;;;;;1.00;0.95;;;18.30;77.00;;;;;;4194825;28;20094;-85
2022/04/29 09:30:08;;;;;;;1.20;1.10;;;18.40;79.80;;;;;;4178536;28;20053;-85
2022/04/29 09:32:11;;;;;;;1.70;1.60;;;17.90;76.20;;;;;;4195353;28;20038;-85
2022/04/29 09:34:13;;;;;;;1.13;1.13;;;17.90;74.70;;;;;;4196074;28;20457;-86
2022/04/29 09:36:22;;;;;;;;;;;18.00;77.50;;;;;;4196517;28;20048;-85
2022/04/29 09:40:48;;;;;;;1.30;1.10;;;18.50;77.90;;;;;;4196893;28;20033;-85
2022/04/29 09:42:59;;;;;;;1.10;1.10;;;18.20;73.60;;;;;;4179994;28;20137;-85
2022/04/29 09:45:21;;;;;;;6.75;1.70;;;18.30;79.10;;;;;;4178856;28;20045;-85
2022/04/29 09:47:24;;;;;;;1.15;1.15;;;18.50;76.00;;;;;;4175542;28;20119;-86
2022/04/29 09:49:29;;;;;;;1.00;1.00;;;18.40;80.60;;;;;;4157769;28;20066;-85
2022/04/29 09:51:51;;;;;;;3.85;1.00;;;18.60;75.50;;;;;;4151777;28;20181;-85
2022/04/29 09:54:18;;;;;;;1.00;1.00;;;18.60;77.70;;;;;;4195102;28;20446;-85
2022/04/29 09:56:20;;;;;;;2.25;1.10;;;18.20;74.90;;;;;;4193596;28;20045;-85
2022/04/29 09:58:23;;;;;;;2.47;1.33;;;18.30;76.00;;;;;;4179773;28;20472;-85
2022/04/29 10:00:26;;;;;;;1.33;1.20;;;18.30;77.90;;;;;;4152231;28;20342;-85
2022/04/29 10:02:30;;;;;;;0.90;0.90;;;18.50;76.90;;;;;;4186468;28;20409;-85
2022/04/29 10:04:36;;;;;;;1.10;1.00;;;18.30;77.60;;;;;;4195092;28;20048;-85
2022/04/29 10:06:39;;;;;;;0.93;0.93;;;18.20;79.20;;;;;;4194833;28;20502;-85
2022/04/29 10:08:43;;;;;;;1.77;1.17;;;18.20;76.00;;;;;;4172041;28;20117;-85
2022/04/29 10:10:47;;;;;;;1.00;1.00;;;18.40;76.00;;;;;;4193918;28;20143;-85
2022/04/29 10:12:51;;;;;;;1.00;1.00;;;18.80;76.90;;;;;;4194101;28;20066;-85
2022/04/29 10:15:05;;;;;;;1.20;1.10;;;19.20;75.40;;;;;;4193882;28;20155;-85
2022/04/29 10:22:03;;;;;;;0.90;0.90;;;18.60;74.70;;;;;;4192141;28;20036;-85
2022/04/29 10:24:06;;;;;;;1.00;1.00;;;19.00;81.90;;;;;;4179427;28;20953;-85
2022/04/29 10:26:09;;;;;;;2.05;1.00;;;19.00;72.10;;;;;;4178420;28;20041;-85
2022/04/29 10:28:23;;;;;;;1.27;1.23;;;18.40;73.40;;;;;;4149539;28;20538;-85
2022/04/29 10:30:33;;;;;;;1.20;1.20;;;18.60;74.10;;;;;;4167936;28;20029;-86
2022/04/29 10:33:07;;;;;;;3.25;1.23;;;18.40;75.70;;;;;;4175725;28;20064;-85
2022/04/29 10:35:45;;;;;;;1.23;1.23;;;18.60;76.90;;;;;;4188369;28;20157;-85
2022/04/29 10:37:47;;;;;;;2.72;1.00;;;18.20;72.60;;;;;;4172394;28;20045;-86
2022/04/29 10:40:06;;;;;;;;;;;18.30;73.10;;;;;;4176925;28;20462;-85
2022/04/29 10:42:12;;;;;;;0.90;0.90;;;18.30;72.50;;;;;;4193021;28;19924;-86
2022/04/29 10:44:16;;;;;;;1.33;0.90;;;18.30;72.70;;;;;;4174134;28;20033;-85
2022/04/29 10:46:22;;;;;;;1.42;1.38;;;17.80;72.20;;;;;;4194904;28;20079;-86
2022/04/29 10:48:31;;;;;;;2.45;1.00;;;17.60;71.20;;;;;;4164803;28;20037;-86
2022/04/29 10:50:37;;;;;;;1.00;1.00;;;17.30;72.10;;;;;;4179641;28;20582;-86
2022/04/29 10:52:39;;;;;;;1.00;1.00;;;17.50;73.90;;;;;;4183403;28;20061;-85
2022/04/29 10:54:44;;;;;;;1.00;1.00;;;17.60;73.40;;;;;;4172035;28;20072;-85
2022/04/29 10:56:59;;;;;;;1.30;1.08;;;17.50;73.00;;;;;;4178386;28;20060;-85
2022/04/29 10:59:05;;;;;;;2.47;1.10;;;17.50;72.80;;;;;;4193099;28;20048;-85
2022/04/29 11:01:31;;;;;;;7.15;1.33;;;17.30;71.10;;;;;;4177626;28;20456;-85
2022/04/29 11:03:37;;;;;;;1.15;1.02;;;17.70;73.30;;;;;;4178054;28;20456;-86
2022/04/29 11:05:42;;;;;;;1.00;1.00;;;17.80;70.90;;;;;;4171341;28;20045;-86
2022/04/29 11:07:48;;;;;;;2.60;1.10;;;17.80;72.10;;;;;;4177678;28;20039;-86
2022/04/29 11:09:51;;;;;;;1.10;1.10;;;17.80;75.80;;;;;;4182018;28;20041;-86
2022/04/29 11:11:55;;;;;;;1.00;1.00;;;17.80;72.30;;;;;;4160462;28;20083;-85
2022/04/29 11:14:02;;;;;;;0.93;0.90;;;17.90;71.90;;;;;;4194421;28;20040;-85
2022/04/29 11:16:11;;;;;;;1.30;0.95;;;18.10;72.30;;;;;;4193774;28;20128;-85
2022/04/29 11:18:19;;;;;;;1.98;1.00;;;18.50;74.60;;;;;;4161889;28;20041;-85